Time;durP1;ratioP1;P1;durP2;ratioP2;P2;SDS_P1;SDS_P2;PMS_P1;PMS_P2;Temp;Humidity;BMP_temperature;BMP_pressure;BME280_temperature;BME280_humidity;BME280_pressure;Samples;Min_cycle;Max_cycle;Signal;HPM_P1;HPM_P2
2021/01/01 00:00:16;;;;;;;154.95;67.22;;;;;;;-0.25;78.93;96336.67;1809506;77;26218;-84
2021/01/01 00:02:47;;;;;;;161.97;70.25;;;;;;;-0.23;78.91;96341.28;1796552;77;25765;-84
2021/01/01 00:05:15;;;;;;;164.45;70.20;;;;;;;-0.29;78.82;96336.67;1792070;77;26457;-84
2021/01/01 00:07:45;;;;;;;161.95;68.50;;;;;;;-0.29;78.86;96334.84;1827198;77;25843;-84
2021/01/01 00:10:14;;;;;;;175.18;76.70;;;;;;;-0.22;78.93;96337.64;1838820;77;28561;-84
2021/01/01 00:15:23;;;;;;;172.57;80.12;;;;;;;-0.12;78.81;96335.64;1846632;76;34821;-82
2021/01/01 00:17:50;;;;;;;165.20;74.97;;;;;;;-0.12;78.75;96345.72;1810400;78;25813;-81
2021/01/01 00:20:17;;;;;;;155.25;71.25;;;;;;;-0.10;78.68;96341.58;1814966;78;27467;-82
2021/01/01 00:22:45;;;;;;;146.53;64.85;;;;;;;-0.10;78.63;96342.90;1789925;78;25764;-82
2021/01/01 00:25:12;;;;;;;141.25;63.55;;;;;;;-0.15;78.60;96343.93;1811729;78;25934;-82
2021/01/01 00:27:40;;;;;;;131.50;62.15;;;;;;;-0.17;78.58;96341.94;1812679;78;25883;-81
2021/01/01 00:30:11;;;;;;;126.15;58.73;;;;;;;-0.15;78.62;96346.58;1804350;78;25821;-82
2021/01/01 00:32:43;;;;;;;139.05;59.33;;;;;;;-0.16;78.57;96343.10;1819294;78;28450;-84
2021/01/01 00:35:12;;;;;;;131.07;59.30;;;;;;;-0.13;78.50;96343.27;1819482;78;25645;-81
2021/01/01 00:37:40;;;;;;;140.28;61.73;;;;;;;-0.15;78.45;96338.12;1811734;78;25741;-84
2021/01/01 00:40:09;;;;;;;131.07;57.45;;;;;;;-0.14;78.50;96348.23;1807307;78;25822;-82
2021/01/01 00:42:38;;;;;;;129.23;55.60;;;;;;;-0.17;78.46;96347.25;1809109;78;25926;-83
2021/01/01 00:45:08;;;;;;;130.27;57.10;;;;;;;-0.29;78.26;96350.77;1808922;78;27484;-82
2021/01/01 00:47:35;;;;;;;136.77;60.55;;;;;;;-0.40;78.33;96344.00;1803577;78;25632;-83
2021/01/01 00:50:05;;;;;;;114.10;51.20;;;;;;;-0.42;78.41;96347.31;1814426;78;25953;-83
2021/01/01 00:52:32;;;;;;;124.78;53.98;;;;;;;-0.48;78.39;96345.31;1791947;78;25763;-82
2021/01/01 00:55:00;;;;;;;113.08;51.15;;;;;;;-0.55;78.36;96350.98;1797647;78;25766;-82
2021/01/01 00:57:27;;;;;;;123.72;55.52;;;;;;;-0.64;78.44;96353.31;1803717;78;27593;-83
2021/01/01 00:59:54;;;;;;;110.20;51.15;;;;;;;-0.67;78.57;96352.31;1788501;78;26374;-82
2021/01/01 01:02:21;;;;;;;112.42;51.18;;;;;;;-0.70;78.62;96349.99;1811149;78;26614;-83
2021/01/01 01:04:49;;;;;;;105.15;49.42;;;;;;;-0.68;78.66;96354.63;1803631;78;26247;-83
2021/01/01 01:07:16;;;;;;;108.12;49.53;;;;;;;-0.70;78.62;96353.14;1814882;77;25737;-83
2021/01/01 01:09:45;;;;;;;114.75;53.55;;;;;;;-0.72;78.61;96350.65;1793010;78;27596;-82
2021/01/01 01:12:12;;;;;;;122.25;57.70;;;;;;;-0.71;78.61;96356.28;1776425;78;25763;-82
2021/01/01 01:14:39;;;;;;;140.40;64.53;;;;;;;-0.73;78.58;96350.35;1811444;78;25805;-83
2021/01/01 01:17:07;;;;;;;142.95;65.22;;;;;;;-0.71;78.63;96348.34;1813794;78;26088;-83
2021/01/01 01:19:35;;;;;;;146.15;66.22;;;;;;;-0.67;78.66;96350.16;1797166;78;25834;-82
2021/01/01 01:22:02;;;;;;;158.47;72.05;;;;;;;-0.63;78.70;96354.97;1799210;78;27503;-83
2021/01/01 01:24:30;;;;;;;159.70;73.50;;;;;;;-0.66;78.62;96347.34;1793132;78;26096;-83
2021/01/01 01:26:57;;;;;;;132.25;61.77;;;;;;;-0.64;78.63;96346.69;1808196;77;25717;-83
2021/01/01 01:29:24;;;;;;;150.78;64.47;;;;;;;-0.66;78.54;96348.67;1808866;78;26205;-85
2021/01/01 01:31:51;;;;;;;129.63;62.25;;;;;;;-0.68;78.50;96347.18;1817277;78;25868;-84
2021/01/01 01:34:19;;;;;;;141.28;62.03;;;;;;;-0.70;78.54;96349.99;1814809;78;27474;-83
2021/01/01 01:36:46;;;;;;;160.00;69.03;;;;;;;-0.68;78.57;96361.75;1792626;78;25733;-83
2021/01/01 01:39:13;;;;;;;133.43;62.38;;;;;;;-0.70;78.51;96359.27;1815900;78;25712;-83
2021/01/01 01:41:41;;;;;;;136.95;66.62;;;;;;;-0.67;78.57;96360.27;1816339;78;25770;-83
2021/01/01 01:44:08;;;;;;;138.82;64.67;;;;;;;-0.66;78.52;96359.27;1795556;78;25815;-83
2021/01/01 01:46:45;;;;;;;127.60;60.92;;;;;;;-0.65;78.49;96359.61;1792856;78;28315;-83
2021/01/01 01:49:16;;;;;;;125.53;57.58;;;;;;;-0.63;78.46;96358.95;1792827;78;25707;-83
2021/01/01 01:51:47;;;;;;;125.90;59.67;;;;;;;-0.62;78.45;96371.20;1796443;78;25786;-83
2021/01/01 01:54:17;;;;;;;129.65;58.98;;;;;;;-0.62;78.42;96371.20;1798470;78;25766;-83
2021/01/01 01:56:46;;;;;;;126.27;61.85;;;;;;;-0.60;78.41;96371.02;1816429;78;25825;-82
2021/01/01 01:59:18;;;;;;;133.93;60.95;;;;;;;-0.58;78.36;96368.53;1803903;78;28452;-83
2021/01/01 02:01:46;;;;;;;141.00;62.58;;;;;;;-0.61;78.28;96372.87;1807858;78;25789;-82
2021/01/01 02:04:13;;;;;;;131.93;63.45;;;;;;;-0.64;78.25;96375.84;1824054;78;25671;-83
2021/01/01 02:06:41;;;;;;;145.30;63.92;;;;;;;-0.66;78.23;96371.20;1806330;78;25789;-82
2021/01/01 02:09:09;;;;;;;145.12;65.67;;;;;;;-0.71;78.21;96374.84;1769195;80;25768;-83
2021/01/01 02:11:36;;;;;;;143.82;67.40;;;;;;;-0.72;78.22;96372.68;1808352;78;27564;-82
2021/01/01 02:14:03;;;;;;;143.43;67.90;;;;;;;-0.76;78.21;96371.88;1825066;78;25720;-83
2021/01/01 02:16:34;;;;;;;146.90;66.65;;;;;;;-0.79;78.25;96364.25;1824719;78;25762;-82
2021/01/01 02:19:01;;;;;;;142.57;66.62;;;;;;;-0.78;78.30;96364.58;1799893;78;26252;-83
2021/01/01 02:21:29;;;;;;;142.03;65.65;;;;;;;-0.78;78.32;96355.31;1820293;78;26679;-82
2021/01/01 02:23:56;;;;;;;138.77;65.60;;;;;;;-0.77;78.36;96363.59;1821000;77;27472;-83
2021/01/01 02:26:25;;;;;;;142.95;61.30;;;;;;;-0.72;78.40;96369.20;1794422;78;26113;-83
2021/01/01 02:28:52;;;;;;;137.62;63.73;;;;;;;-0.72;78.29;96365.23;1807945;78;25797;-82
2021/01/01 02:31:19;;;;;;;131.40;59.85;;;;;;;-0.75;78.22;96360.28;1812808;78;26273;-83
2021/01/01 02:33:47;;;;;;;132.67;61.70;;;;;;;-0.77;78.20;96360.94;1810348;78;25913;-84
2021/01/01 02:36:14;;;;;;;130.93;59.45;;;;;;;-0.78;78.20;96366.73;1810526;78;28461;-84
2021/01/01 02:38:42;;;;;;;127.15;59.42;;;;;;;-0.79;78.21;96370.38;1793085;78;26078;-83
2021/01/01 02:41:09;;;;;;;131.55;58.10;;;;;;;-0.81;78.17;96364.91;1801194;78;25308;-83
2021/01/01 02:43:37;;;;;;;144.07;63.25;;;;;;;-0.88;78.05;96360.78;1801942;78;26123;-84
2021/01/01 02:46:04;;;;;;;130.07;60.63;;;;;;;-0.94;78.03;96362.75;1806117;78;25687;-84
2021/01/01 02:48:32;;;;;;;142.90;61.48;;;;;;;-0.95;78.11;96358.94;1798938;78;28505;-83
2021/01/01 02:50:59;;;;;;;131.43;60.90;;;;;;;-0.94;78.22;96357.95;1818613;78;25919;-83
2021/01/01 02:53:28;;;;;;;131.95;58.98;;;;;;;-0.93;78.25;96353.81;1801992;78;25771;-83
2021/01/01 02:55:55;;;;;;;130.95;60.65;;;;;;;-0.91;78.29;96358.45;1799924;78;25718;-83
2021/01/01 02:58:23;;;;;;;128.65;58.28;;;;;;;-0.90;78.25;96361.94;1799296;78;25860;-83
2021/01/01 03:00:51;;;;;;;125.10;57.50;;;;;;;-0.93;78.19;96358.28;1796713;78;28470;-82
2021/01/01 03:03:18;;;;;;;121.40;57.70;;;;;;;-0.94;78.15;96360.59;1813661;78;25688;-83
2021/01/01 03:05:46;;;;;;;124.47;56.53;;;;;;;-0.96;78.14;96361.26;1807470;78;25894;-83
2021/01/01 03:08:14;;;;;;;122.10;58.13;;;;;;;-1.00;78.08;96362.11;1825060;78;25737;-83
2021/01/01 03:10:41;;;;;;;117.05;56.35;;;;;;;-1.00;78.09;96362.60;1810900;78;25813;-84
2021/01/01 03:13:08;;;;;;;118.77;55.75;;;;;;;-1.02;78.12;96359.28;1806148;78;26895;-83
2021/01/01 03:15:36;;;;;;;126.85;53.80;;;;;;;-1.01;78.12;96359.62;1810415;78;25774;-83
2021/01/01 03:18:03;;;;;;;121.02;55.25;;;;;;;-1.05;78.02;96351.66;1818913;78;25754;-83
2021/01/01 03:20:31;;;;;;;113.72;54.03;;;;;;;-1.09;78.05;96355.16;1790781;77;25896;-83
2021/01/01 03:22:58;;;;;;;112.12;54.98;;;;;;;-1.11;78.05;96355.31;1775685;78;25735;-83
2021/01/01 03:25:25;;;;;;;113.85;54.18;;;;;;;-1.11;78.09;96354.48;1808795;78;28503;-83
2021/01/01 03:27:53;;;;;;;108.90;50.48;;;;;;;-1.10;78.16;96350.85;1816773;78;25755;-84
2021/01/01 03:30:21;;;;;;;106.95;50.95;;;;;;;-1.11;78.09;96355.31;1816651;78;25806;-83
2021/01/01 03:32:48;;;;;;;124.25;57.98;;;;;;;-1.11;78.09;96355.31;1816594;78;25720;-83
2021/01/01 03:35:16;;;;;;;132.93;62.70;;;;;;;-1.14;77.91;96356.13;1818682;78;25795;-84
2021/01/01 03:37:44;;;;;;;132.10;62.65;;;;;;;-1.28;77.62;96353.63;1805562;78;27477;-84
2021/01/01 03:40:11;;;;;;;124.02;59.70;;;;;;;-1.30;77.68;96360.91;1804422;78;26373;-83
2021/01/01 03:42:39;;;;;;;110.48;54.83;;;;;;;-1.33;77.66;96365.23;1810484;78;25722;-84
2021/01/01 03:45:10;;;;;;;106.87;53.63;;;;;;;-1.46;77.48;96361.72;1802838;78;26321;-83
2021/01/01 03:47:37;;;;;;;116.35;55.38;;;;;;;-1.52;77.49;96365.50;1801185;78;25687;-85
2021/01/01 03:50:05;;;;;;;114.90;57.60;;;;;;;-1.54;77.63;96360.86;1803587;78;27545;-83
2021/01/01 03:52:32;;;;;;;121.25;58.48;;;;;;;-1.62;77.53;96365.64;1818806;78;26123;-84
2021/01/01 03:54:59;;;;;;;116.65;56.20;;;;;;;-1.67;77.58;96360.00;1775605;78;25709;-84
2021/01/01 03:57:27;;;;;;;119.82;58.40;;;;;;;-1.69;77.61;96370.43;1782278;78;25863;-83
2021/01/01 03:59:54;;;;;;;122.85;59.33;;;;;;;-1.76;77.61;96369.39;1782379;78;25887;-83
2021/01/01 04:02:21;;;;;;;132.52;62.50;;;;;;;-1.83;77.71;96370.05;1788608;78;27525;-83
2021/01/01 04:04:49;;;;;;;121.20;58.52;;;;;;;-1.78;77.82;96366.08;1797105;78;25647;-84
2021/01/01 04:07:16;;;;;;;116.55;58.45;;;;;;;-1.81;77.75;96370.70;1786880;78;25837;-83
2021/01/01 04:09:44;;;;;;;121.67;58.28;;;;;;;-1.86;77.62;96367.72;1791641;78;25863;-83
2021/01/01 04:12:11;;;;;;;129.70;61.63;;;;;;;-1.92;77.62;96372.31;1812605;78;25703;-83
2021/01/01 04:14:39;;;;;;;121.47;59.00;;;;;;;-1.96;77.52;96369.67;1812157;78;27549;-83
2021/01/01 04:17:06;;;;;;;129.70;62.38;;;;;;;-2.00;77.44;96367.00;1791385;78;25703;-84
2021/01/01 04:19:34;;;;;;;125.45;59.98;;;;;;;-2.02;77.41;96378.22;1796045;78;26078;-84
2021/01/01 04:22:01;;;;;;;118.62;61.48;;;;;;;-2.01;77.43;96374.59;1801150;78;25686;-83
2021/01/01 04:24:29;;;;;;;128.87;62.38;;;;;;;-2.04;77.38;96372.25;1813517;78;25748;-84
2021/01/01 04:26:56;;;;;;;135.97;66.20;;;;;;;-2.08;77.35;96376.23;1792679;78;28518;-83
2021/01/01 04:29:24;;;;;;;123.95;58.70;;;;;;;-2.09;77.36;96375.89;1807535;78;26101;-84
2021/01/01 04:31:51;;;;;;;121.95;57.53;;;;;;;-2.11;77.32;96375.70;1814022;78;25781;-83
2021/01/01 04:34:18;;;;;;;129.68;61.73;;;;;;;-2.24;77.21;96374.81;1788022;78;26388;-84
2021/01/01 04:36:46;;;;;;;126.50;62.25;;;;;;;-2.32;77.32;96379.58;1801165;78;25893;-84
2021/01/01 04:39:13;;;;;;;122.70;59.70;;;;;;;-2.32;77.38;96381.39;1818757;78;27578;-84
2021/01/01 04:41:42;;;;;;;125.07;59.93;;;;;;;-2.30;77.42;96383.39;1787259;78;26192;-84
2021/01/01 04:44:10;;;;;;;147.80;69.82;;;;;;;-2.31;77.37;96383.88;1811035;78;25399;-83
2021/01/01 04:46:38;;;;;;;145.72;71.45;;;;;;;-2.34;77.28;96391.28;1818501;78;25721;-84
2021/01/01 04:49:06;;;;;;;158.82;72.03;;;;;;;-2.38;77.25;96396.53;1816622;77;25800;-84
2021/01/01 04:51:35;;;;;;;153.10;70.42;;;;;;;-2.55;77.17;96391.66;1810499;78;27482;-85
2021/01/01 04:54:03;;;;;;;148.93;68.55;;;;;;;-2.67;77.26;96396.85;1779641;78;25780;-84
2021/01/01 04:56:31;;;;;;;144.32;69.92;;;;;;;-2.75;77.37;96396.77;1812045;78;26198;-84
2021/01/01 04:59:00;;;;;;;139.22;67.80;;;;;;;-2.82;77.43;96401.02;1793973;78;25857;-84
2021/01/01 05:01:27;;;;;;;121.20;56.83;;;;;;;-2.84;77.51;96392.41;1767601;78;25845;-84
2021/01/01 05:03:54;;;;;;;111.80;52.73;;;;;;;-2.83;77.65;96395.40;1806506;78;27556;-84
2021/01/01 05:06:29;;;;;;;112.62;53.45;;;;;;;-2.78;77.76;96399.74;1795492;78;26132;-84
2021/01/01 05:08:59;;;;;;;116.73;53.35;;;;;;;-2.80;77.76;96397.25;1813930;78;25679;-83
2021/01/01 05:11:26;;;;;;;103.65;46.70;;;;;;;-2.78;77.87;96399.25;1813874;78;25571;-84
2021/01/01 05:14:02;;;;;;;108.60;51.88;;;;;;;-2.74;77.94;96404.55;1814945;78;25709;-84
2021/01/01 05:16:30;;;;;;;108.55;51.40;;;;;;;-2.81;77.84;96402.19;1820796;77;27478;-84
2021/01/01 05:18:57;;;;;;;118.25;56.50;;;;;;;-2.82;77.84;96412.91;1801987;78;25751;-84
2021/01/01 05:21:29;;;;;;;126.00;59.38;;;;;;;-2.80;77.83;96406.50;1797641;77;25771;-83
2021/01/01 05:23:57;;;;;;;127.40;62.48;;;;;;;-2.83;77.52;96409.44;1791857;78;26525;-83
2021/01/01 05:26:29;;;;;;;123.62;57.90;;;;;;;-2.95;77.44;96394.32;1808345;78;25732;-83
2021/01/01 05:29:10;;;;;;;128.57;61.23;;;;;;;-2.85;77.39;96407.92;1815499;78;27493;-84
2021/01/01 05:31:42;;;;;;;116.82;56.68;;;;;;;-2.87;77.32;96414.67;1818214;78;25734;-84
2021/01/01 05:34:13;;;;;;;117.60;59.42;;;;;;;-2.83;77.27;96415.20;1811430;77;32399;-84
2021/01/01 05:36:47;;;;;;;91.37;45.15;;;;;;;-2.84;77.16;96422.30;1793494;78;25773;-83
2021/01/01 05:39:23;;;;;;;122.42;60.12;;;;;;;-2.82;77.10;96424.79;1790544;78;25790;-84
2021/01/01 05:41:53;;;;;;;125.00;59.85;;;;;;;-2.82;77.07;96424.79;1821872;78;26347;-84
2021/01/01 05:44:30;;;;;;;118.85;57.20;;;;;;;-2.82;77.00;96424.30;1822057;77;25778;-84
2021/01/01 05:47:04;;;;;;;117.77;59.18;;;;;;;-2.82;76.94;96420.34;1814773;77;25753;-83
2021/01/01 05:49:41;;;;;;;129.60;59.40;;;;;;;-2.79;76.92;96429.28;1810445;78;26456;-83
2021/01/01 05:52:21;;;;;;;131.80;65.50;;;;;;;-2.79;76.81;96426.64;1783747;78;25715;-83
2021/01/01 05:55:03;;;;;;;143.52;67.42;;;;;;;-2.82;76.72;96430.91;1799076;78;26741;-83
2021/01/01 05:57:37;;;;;;;143.50;68.62;;;;;;;-2.83;76.69;96434.52;1791046;78;26498;-83
2021/01/01 06:00:12;;;;;;;145.20;69.10;;;;;;;-2.86;76.70;96429.53;1772068;78;25723;-83
2021/01/01 06:02:42;;;;;;;140.18;70.92;;;;;;;-2.87;76.71;96431.84;1768015;78;26436;-83
2021/01/01 06:05:11;;;;;;;137.00;66.15;;;;;;;-2.88;76.66;96429.34;1801025;77;25725;-84
2021/01/01 06:07:40;;;;;;;128.12;64.92;;;;;;;-2.87;76.69;96435.80;1818465;78;27403;-84
2021/01/01 06:10:11;;;;;;;137.03;68.05;;;;;;;-2.87;76.65;96432.33;1818358;78;25970;-83
2021/01/01 06:12:40;;;;;;;135.65;66.57;;;;;;;-2.91;76.59;96433.14;1788799;78;25873;-83
2021/01/01 06:15:10;;;;;;;142.53;67.03;;;;;;;-2.91;76.59;96430.50;1781963;78;25793;-84
2021/01/01 06:17:52;;;;;;;138.32;67.60;;;;;;;-2.98;76.46;96434.71;1803767;78;25754;-84
2021/01/01 06:20:21;;;;;;;126.47;61.18;;;;;;;-3.03;76.41;96439.63;1792768;78;28944;-84
2021/01/01 06:23:05;;;;;;;130.87;62.05;;;;;;;-3.05;76.42;96442.91;1795399;78;25734;-83
2021/01/01 06:25:35;;;;;;;119.20;57.65;;;;;;;-3.05;76.43;96449.51;1820396;78;25813;-83
2021/01/01 06:28:04;;;;;;;126.97;60.52;;;;;;;-3.09;76.40;96446.82;1824270;78;25758;-83
2021/01/01 06:30:33;;;;;;;123.38;57.60;;;;;;;-3.13;76.43;96448.92;1802098;78;25734;-83
2021/01/01 06:33:06;;;;;;;130.90;59.03;;;;;;;-3.14;76.34;96447.78;1812797;78;28462;-83
2021/01/01 06:35:43;;;;;;;128.35;58.28;;;;;;;-3.19;76.39;96453.98;1804044;78;25863;-83
2021/01/01 06:38:11;;;;;;;126.45;60.40;;;;;;;-3.26;76.33;96453.77;1824999;77;25310;-83
2021/01/01 06:40:39;;;;;;;126.97;60.43;;;;;;;-3.25;76.44;96455.39;1802092;78;26459;-83
2021/01/01 06:43:09;;;;;;;141.47;63.73;;;;;;;-3.29;76.38;96454.89;1814815;78;25845;-83
2021/01/01 06:45:45;;;;;;;129.03;60.80;;;;;;;-3.28;76.44;96456.55;1820577;78;27613;-83
2021/01/01 06:48:23;;;;;;;132.87;60.67;;;;;;;-3.29;76.46;96453.56;1824432;78;25788;-83
2021/01/01 06:50:53;;;;;;;124.75;57.95;;;;;;;-3.28;76.44;96459.67;1811445;78;25745;-84
2021/01/01 06:53:29;;;;;;;115.35;55.00;;;;;;;-3.30;76.40;96460.31;1815393;78;25701;-83
2021/01/01 06:56:12;;;;;;;118.35;53.17;;;;;;;-3.32;76.42;96461.77;1812042;78;26322;-83
2021/01/01 06:58:41;;;;;;;117.85;55.45;;;;;;;-3.33;76.42;96462.75;1792558;78;28476;-83
2021/01/01 07:01:19;;;;;;;119.35;54.88;;;;;;;-3.31;76.43;96463.44;1802235;78;25732;-83
2021/01/01 07:03:55;;;;;;;115.22;54.73;;;;;;;-3.28;76.44;96465.78;1805701;78;26337;-84
2021/01/01 07:06:27;;;;;;;113.05;53.55;;;;;;;-3.27;76.45;96463.49;1792664;78;25952;-83
2021/01/01 07:08:55;;;;;;;114.28;55.15;;;;;;;-3.23;76.38;96474.56;1797038;78;25927;-83
2021/01/01 07:11:27;;;;;;;118.82;55.17;;;;;;;-3.28;76.30;96469.75;1806062;78;27529;-83
2021/01/01 07:13:59;;;;;;;122.67;56.90;;;;;;;-3.35;76.34;96462.55;1824319;78;26157;-83
2021/01/01 07:16:32;;;;;;;131.43;63.15;;;;;;;-3.39;76.42;96460.72;1818882;77;25710;-83
2021/01/01 07:19:00;;;;;;;151.60;72.10;;;;;;;-3.36;76.53;96460.40;1780697;78;25708;-83
2021/01/01 07:21:27;;;;;;;156.85;71.97;;;;;;;-3.28;76.56;96471.06;1806642;78;26285;-83
2021/01/01 07:23:55;;;;;;;140.65;68.90;;;;;;;-3.24;76.59;96460.19;1788581;78;27488;-83
2021/01/01 07:26:27;;;;;;;132.93;65.92;;;;;;;-3.20;76.60;96461.08;1805000;78;25782;-83
2021/01/01 07:28:57;;;;;;;136.35;66.57;;;;;;;-3.16;76.58;96462.93;1818608;78;26462;-84
2021/01/01 07:31:24;;;;;;;132.10;62.27;;;;;;;-3.12;76.61;96466.91;1821588;78;25766;-83
2021/01/01 07:33:52;;;;;;;122.42;59.65;;;;;;;-3.10;76.62;96464.95;1815567;77;25795;-83
2021/01/01 07:36:20;;;;;;;126.07;60.90;;;;;;;-3.05;76.67;96465.35;1796622;78;27477;-83
2021/01/01 07:38:49;;;;;;;139.37;63.85;;;;;;;-3.03;76.64;96470.83;1777572;78;26090;-84
2021/01/01 07:41:19;;;;;;;137.80;63.63;;;;;;;-3.01;76.66;96472.80;1792481;78;25741;-84
2021/01/01 07:43:51;;;;;;;144.72;67.22;;;;;;;-2.94;76.69;96474.37;1784048;78;25660;-84
2021/01/01 07:46:18;;;;;;;144.50;67.60;;;;;;;-2.87;76.72;96475.91;1768039;78;25746;-84
2021/01/01 07:48:52;;;;;;;143.05;64.00;;;;;;;-2.80;76.73;96473.84;1784959;78;27493;-84
2021/01/01 07:51:20;;;;;;;141.85;64.62;;;;;;;-2.75;76.68;96476.84;1767832;78;25719;-84
2021/01/01 07:53:47;;;;;;;126.47;63.15;;;;;;;-2.69;76.68;96478.89;1779658;78;25757;-84
2021/01/01 07:56:15;;;;;;;139.37;63.78;;;;;;;-2.63;76.73;96484.05;1787526;78;26420;-84
2021/01/01 07:58:44;;;;;;;128.70;60.48;;;;;;;-2.55;76.80;96482.81;1790016;78;25818;-84
2021/01/01 08:01:12;;;;;;;122.90;58.78;;;;;;;-2.51;76.74;96485.95;1783372;77;27547;-84
2021/01/01 08:03:41;;;;;;;120.45;57.65;;;;;;;-2.48;76.76;96486.98;1784002;78;25795;-84
2021/01/01 08:06:09;;;;;;;128.45;62.35;;;;;;;-2.40;76.79;96489.67;1784162;78;25699;-83
2021/01/01 08:08:38;;;;;;;173.02;78.07;;;;;;;-2.31;76.84;96487.45;1768262;78;25822;-83
2021/01/01 08:11:08;;;;;;;144.28;69.25;;;;;;;-2.20;76.81;96492.00;1782626;78;25306;-83
2021/01/01 08:13:36;;;;;;;122.40;61.10;;;;;;;-2.13;76.76;96489.55;1786842;78;27487;-83
2021/01/01 08:16:19;;;;;;;127.47;63.25;;;;;;;-2.08;76.73;96492.57;1782278;77;25838;-83
2021/01/01 08:18:47;;;;;;;153.97;73.67;;;;;;;-2.00;76.72;96490.46;1814062;78;26002;-82
2021/01/01 08:21:14;;;;;;;140.80;64.17;;;;;;;-1.87;76.78;96487.73;1802999;78;26450;-84
2021/01/01 08:24:03;;;;;;;144.43;66.00;;;;;;;-1.78;76.75;96499.19;1784873;78;25649;-84
2021/01/01 08:26:34;;;;;;;153.95;72.37;;;;;;;-1.72;76.64;96495.92;1810696;78;28516;-84
2021/01/01 08:29:03;;;;;;;141.10;68.83;;;;;;;-1.57;76.70;96501.47;1802720;78;26173;-84
2021/01/01 08:31:30;;;;;;;135.15;65.92;;;;;;;-1.47;76.62;96502.17;1789887;78;25667;-84
2021/01/01 08:33:58;;;;;;;142.45;66.17;;;;;;;-1.33;76.63;96500.25;1797121;78;25857;-83
2021/01/01 08:36:34;;;;;;;124.02;63.00;;;;;;;-1.16;76.62;96495.33;1803108;78;25280;-83
2021/01/01 08:39:14;;;;;;;116.15;59.33;;;;;;;-1.04;76.51;96492.38;1781904;78;28965;-83
2021/01/01 08:41:46;;;;;;;125.18;61.68;;;;;;;-0.93;76.35;96498.69;1796200;78;25752;-82
2021/01/01 08:44:16;;;;;;;128.97;64.82;;;;;;;-0.79;76.44;96498.06;1807929;78;25863;-83
2021/01/01 08:46:44;;;;;;;128.65;62.13;;;;;;;-0.62;76.45;96500.25;1800024;78;26381;-82
2021/01/01 08:49:22;;;;;;;154.05;71.28;;;;;;;-0.41;76.53;96501.42;1796503;78;25797;-82
2021/01/01 08:51:50;;;;;;;133.67;68.02;;;;;;;-0.18;76.43;96498.09;1809838;78;28441;-82
2021/01/01 08:54:26;;;;;;;116.53;57.73;;;;;;;0.09;76.39;96500.41;1788300;78;25703;-84
2021/01/01 08:56:59;;;;;;;104.85;52.10;;;;;;;0.29;76.25;96496.87;1792094;78;25815;-82
2021/01/01 08:59:28;;;;;;;112.88;55.28;;;;;;;0.55;76.17;96498.79;1818106;78;25683;-81
2021/01/01 09:01:56;;;;;;;116.70;55.30;;;;;;;0.80;75.97;96499.53;1775717;78;25754;-81
2021/01/01 09:04:30;;;;;;;105.80;55.25;;;;;;;1.02;75.67;96496.09;1775880;78;27491;-82
2021/01/01 09:07:02;;;;;;;100.05;50.00;;;;;;;1.20;75.54;96499.00;1786900;78;26688;-81
2021/01/01 09:09:32;;;;;;;98.87;49.60;;;;;;;1.39;75.34;96499.86;1777656;78;25760;-81
2021/01/01 09:12:20;;;;;;;84.55;45.12;;;;;;;1.52;75.14;96494.80;1788183;78;27470;-81
2021/01/01 09:14:57;;;;;;;80.50;44.73;;;;;;;1.64;75.15;96493.88;1797369;78;25759;-81
2021/01/01 09:17:26;;;;;;;73.62;42.35;;;;;;;1.78;75.15;96490.44;1775652;78;27613;-81
2021/01/01 09:20:09;;;;;;;74.92;40.25;;;;;;;1.94;75.01;96494.78;1794792;78;25956;-82
2021/01/01 09:22:38;;;;;;;72.67;38.88;;;;;;;2.02;74.87;96497.39;1802891;78;25706;-82
2021/01/01 09:25:22;;;;;;;58.58;33.73;;;;;;;2.21;75.00;96495.53;1777811;78;25751;-81
2021/01/01 09:27:51;;;;;;;66.50;33.40;;;;;;;2.40;75.09;96482.20;1805225;78;25719;-82
2021/01/01 09:30:21;;;;;;;59.58;34.27;;;;;;;2.68;75.02;96484.53;1796679;78;27915;-81
2021/01/01 09:32:53;;;;;;;50.75;27.90;;;;;;;2.85;74.64;96487.84;1790480;78;26085;-81
2021/01/01 09:35:21;;;;;;;49.23;27.52;;;;;;;3.09;74.65;96487.53;1784192;78;25737;-81
2021/01/01 09:38:03;;;;;;;47.70;26.20;;;;;;;3.33;74.38;96486.37;1789920;78;26322;-82
2021/01/01 09:40:34;;;;;;;45.45;24.65;;;;;;;3.58;74.10;96484.16;1794827;78;25885;-82
2021/01/01 09:43:03;;;;;;;42.70;25.05;;;;;;;3.78;73.92;96482.50;1788151;78;27479;-82
2021/01/01 09:45:31;;;;;;;43.40;25.27;;;;;;;4.02;73.55;96481.78;1793366;78;26137;-82
2021/01/01 09:47:59;;;;;;;35.73;21.77;;;;;;;4.23;73.46;96486.58;1783861;78;25281;-83
2021/01/01 09:50:26;;;;;;;40.95;24.63;;;;;;;4.51;73.20;96489.25;1805085;78;26461;-82
2021/01/01 09:52:54;;;;;;;40.90;24.45;;;;;;;4.78;72.84;96476.05;1812672;78;25761;-83
2021/01/01 09:55:21;;;;;;;40.28;24.07;;;;;;;5.00;72.37;96474.92;1783199;78;28824;-83
2021/01/01 09:57:50;;;;;;;44.83;26.05;;;;;;;5.16;71.95;96481.27;1780674;78;25768;-83
2021/01/01 10:00:19;;;;;;;53.00;30.20;;;;;;;5.23;71.74;96480.77;1795652;78;25758;-83
2021/01/01 10:02:46;;;;;;;67.65;33.85;;;;;;;5.44;71.80;96479.29;1803528;78;25725;-84
2021/01/01 10:05:14;;;;;;;58.15;30.95;;;;;;;5.63;71.44;96480.89;1818999;77;25698;-83
2021/01/01 10:07:41;;;;;;;62.93;35.13;;;;;;;5.80;70.77;96480.80;1799714;78;27478;-83
2021/01/01 10:10:11;;;;;;;47.78;26.93;;;;;;;5.90;70.60;96475.93;1781002;78;25782;-83
2021/01/01 10:12:38;;;;;;;41.30;23.95;;;;;;;6.13;70.76;96475.53;1796243;78;25672;-84
2021/01/01 10:15:07;;;;;;;36.15;21.48;;;;;;;6.29;70.40;96480.97;1803890;78;26542;-83
2021/01/01 10:17:34;;;;;;;36.93;22.30;;;;;;;6.47;70.22;96482.00;1783127;78;25885;-83
2021/01/01 10:20:02;;;;;;;35.98;21.77;;;;;;;6.64;69.77;96472.19;1802154;78;27484;-83
2021/01/01 10:22:29;;;;;;;39.20;22.45;;;;;;;6.80;69.54;96472.55;1811780;78;25912;-84
2021/01/01 10:24:56;;;;;;;36.60;21.97;;;;;;;6.94;69.23;96465.80;1811720;78;26229;-85
2021/01/01 10:27:24;;;;;;;36.33;21.27;;;;;;;7.06;69.05;96467.62;1815352;78;25730;-85
2021/01/01 10:29:51;;;;;;;34.05;20.43;;;;;;;7.27;68.55;96471.04;1819579;78;26092;-83
2021/01/01 10:32:18;;;;;;;36.17;21.57;;;;;;;7.43;67.86;96463.34;1805976;78;27494;-84
2021/01/01 10:34:46;;;;;;;37.28;22.52;;;;;;;7.66;67.79;96461.97;1824571;78;26120;-83
2021/01/01 10:37:13;;;;;;;38.15;21.95;;;;;;;7.89;67.43;96457.68;1821106;78;25733;-83
2021/01/01 10:39:41;;;;;;;36.20;21.12;;;;;;;8.16;66.87;96459.66;1802087;78;25885;-83
2021/01/01 10:42:10;;;;;;;33.95;21.33;;;;;;;8.39;66.26;96451.53;1809582;78;25719;-83
2021/01/01 10:44:38;;;;;;;37.25;21.65;;;;;;;8.58;65.62;96445.12;1805211;78;27560;-83
2021/01/01 10:47:05;;;;;;;32.13;20.20;;;;;;;8.83;65.80;96435.14;1811652;78;26466;-84
2021/01/01 10:49:34;;;;;;;32.03;20.00;;;;;;;9.07;65.24;96431.25;1793495;78;25911;-84
2021/01/01 10:52:03;;;;;;;33.60;20.60;;;;;;;9.21;64.75;96430.05;1819398;78;26600;-84
2021/01/01 10:54:31;;;;;;;37.60;21.57;;;;;;;9.33;63.98;96426.88;1799237;78;26422;-84
2021/01/01 10:56:58;;;;;;;30.60;20.92;;;;;;;9.43;64.09;96419.08;1792770;78;27564;-84
2021/01/01 10:59:25;;;;;;;33.50;19.87;;;;;;;9.61;63.94;96419.57;1807304;78;25757;-84
2021/01/01 11:01:59;;;;;;;29.42;18.23;;;;;;;9.79;63.46;96417.33;1823819;78;25686;-84
2021/01/01 11:04:27;;;;;;;28.40;17.95;;;;;;;9.95;62.86;96417.50;1814089;78;25765;-83
2021/01/01 11:06:54;;;;;;;27.40;17.70;;;;;;;10.10;62.66;96419.76;1802124;78;25708;-84
2021/01/01 11:09:22;;;;;;;26.10;16.75;;;;;;;10.26;62.19;96409.67;1813663;78;27552;-84
2021/01/01 11:11:49;;;;;;;25.40;17.12;;;;;;;10.38;61.56;96403.77;1792600;78;25825;-84
2021/01/01 11:14:22;;;;;;;24.85;15.75;;;;;;;10.41;61.12;96402.45;1801366;78;25716;-84
2021/01/01 12:20:50;;;;;;;22.95;15.03;;;;;;;11.28;53.15;96399.73;1790216;78;25726;-83
2021/01/01 12:23:15;;;;;;;25.80;16.97;;;;;;;11.09;53.09;96399.09;1801304;78;25781;-83
2021/01/01 12:25:39;;;;;;;24.92;15.90;;;;;;;10.96;52.94;96404.23;1794009;78;26451;-83
2021/01/01 12:28:09;;;;;;;24.63;14.13;;;;;;;10.83;52.86;96409.89;1794430;78;26343;-83